createdAt,value
2022-12-18T00:00:19.452Z,73.60
2022-12-18T00:00:50.910Z,73.70
2022-12-18T00:01:22.424Z,73.70
2022-12-18T00:01:53.974Z,73.70
2022-12-18T00:02:25.510Z,73.60
2022-12-18T00:02:57.036Z,74.40
2022-12-18T00:03:28.652Z,73.60
2022-12-18T00:04:00.315Z,73.70
2022-12-18T00:04:31.923Z,73.60
2022-12-18T00:05:03.395Z,73.70
2022-12-18T00:05:34.870Z,73.70
2022-12-18T00:06:06.566Z,73.60
2022-12-18T00:06:38.019Z,73.60
2022-12-18T00:07:09.485Z,73.70
2022-12-18T00:07:40.950Z,73.70
2022-12-18T00:08:12.442Z,73.60
2022-12-18T00:08:43.911Z,73.50
2022-12-18T00:09:15.441Z,73.40
2022-12-18T00:09:46.912Z,73.50
2022-12-18T00:10:18.391Z,73.40
2022-12-18T00:10:49.849Z,73.40
2022-12-18T00:11:21.322Z,73.50
2022-12-18T00:11:52.883Z,73.50
2022-12-18T00:12:24.356Z,73.60
2022-12-18T00:12:55.830Z,73.60
2022-12-18T00:13:27.293Z,73.60
2022-12-18T00:13:59.407Z,73.60
2022-12-18T00:14:30.870Z,73.60
2022-12-18T00:15:02.333Z,73.60
2022-12-18T00:15:33.797Z,73.60
2022-12-18T00:16:06.253Z,73.50
2022-12-18T00:16:37.871Z,73.50
2022-12-18T00:17:09.452Z,73.50
2022-12-18T00:17:41.152Z,73.60
2022-12-18T00:18:16.103Z,73.60
2022-12-18T00:18:50.535Z,73.60
2022-12-18T00:19:22.084Z,73.60
2022-12-18T00:19:53.607Z,73.60
2022-12-18T00:20:25.081Z,73.70
2022-12-18T00:20:56.572Z,73.70
2022-12-18T00:21:28.037Z,73.90
2022-12-18T00:21:59.499Z,73.70
2022-12-18T00:22:31.052Z,73.70
2022-12-18T00:23:02.619Z,74.20
2022-12-18T00:23:34.092Z,74.10
2022-12-18T00:24:05.555Z,74.20
2022-12-18T00:24:37.021Z,74.20
2022-12-18T00:25:08.488Z,74.30
2022-12-18T00:25:39.985Z,74.30
2022-12-18T00:26:11.474Z,74.00
2022-12-18T00:26:42.950Z,73.90
2022-12-18T00:27:14.421Z,74.00
2022-12-18T00:27:45.927Z,73.90
2022-12-18T00:28:17.410Z,74.00
2022-12-18T00:28:48.925Z,74.00
2022-12-18T00:29:20.379Z,74.20
2022-12-18T00:29:51.847Z,74.20
2022-12-18T00:30:23.304Z,73.90
2022-12-18T00:30:54.775Z,74.20
2022-12-18T00:31:26.387Z,74.00
2022-12-18T00:31:57.998Z,74.00
2022-12-18T00:32:29.537Z,73.90
2022-12-18T00:33:00.992Z,74.00
2022-12-18T00:33:32.451Z,73.80
2022-12-18T00:34:03.910Z,74.00
2022-12-18T00:34:35.373Z,73.90
2022-12-18T00:35:06.897Z,73.70
2022-12-18T00:35:38.362Z,73.60
2022-12-18T00:36:09.893Z,73.60
2022-12-18T00:36:41.356Z,73.60
2022-12-18T00:37:18.288Z,73.60
2022-12-18T00:37:51.458Z,73.60
2022-12-18T00:38:22.953Z,73.50
2022-12-18T00:38:54.435Z,73.50
2022-12-18T00:39:25.897Z,73.60
2022-12-18T00:39:57.349Z,73.50
2022-12-18T00:40:28.829Z,73.50
2022-12-18T00:41:00.315Z,73.50
2022-12-18T00:41:31.993Z,73.30
2022-12-18T00:42:03.495Z,73.40
2022-12-18T00:42:34.970Z,73.40
2022-12-18T00:43:06.426Z,73.30
2022-12-18T00:43:38.307Z,73.50
2022-12-18T00:44:10.025Z,73.50
2022-12-18T00:44:41.522Z,73.60
2022-12-18T00:45:13.433Z,73.70
2022-12-18T00:45:45.119Z,73.70
2022-12-18T00:46:16.732Z,73.70
2022-12-18T00:46:48.239Z,73.70
2022-12-18T00:47:19.740Z,73.90
2022-12-18T00:47:51.207Z,73.70
2022-12-18T00:48:22.747Z,73.80
2022-12-18T00:48:54.212Z,73.70
2022-12-18T00:49:25.683Z,73.70
2022-12-18T00:49:57.140Z,73.60
2022-12-18T00:50:28.621Z,73.70
2022-12-18T00:51:00.085Z,73.70
2022-12-18T00:51:31.680Z,73.80
2022-12-18T00:52:03.209Z,73.70
2022-12-18T00:52:34.675Z,73.60
2022-12-18T00:53:06.147Z,73.60
2022-12-18T00:53:38.001Z,73.60
2022-12-18T00:54:09.691Z,73.70
2022-12-18T00:54:41.154Z,73.60
2022-12-18T00:55:12.619Z,73.60
2022-12-18T00:55:44.073Z,73.50
2022-12-18T00:56:15.544Z,73.60
2022-12-18T00:56:50.231Z,73.60
2022-12-18T00:57:21.747Z,73.50
2022-12-18T00:57:53.215Z,73.40
2022-12-18T00:58:24.683Z,73.50
2022-12-18T00:58:56.205Z,73.30
2022-12-18T00:59:27.672Z,73.50
2022-12-18T00:59:59.136Z,73.60
2022-12-18T01:00:30.606Z,73.60
2022-12-18T01:01:02.134Z,73.60
2022-12-18T01:01:33.747Z,73.50
2022-12-18T01:02:05.418Z,73.60
2022-12-18T01:02:37.104Z,73.60
2022-12-18T01:03:08.745Z,73.60
2022-12-18T01:03:40.497Z,73.50
2022-12-18T01:04:12.474Z,73.50
2022-12-18T01:04:43.951Z,73.50
2022-12-18T01:05:15.424Z,73.60
2022-12-18T01:05:46.883Z,73.50
2022-12-18T01:06:18.412Z,73.50
2022-12-18T01:06:49.975Z,73.50
2022-12-18T01:07:21.489Z,73.50
2022-12-18T01:07:52.995Z,73.60
2022-12-18T01:08:24.466Z,73.50
2022-12-18T01:08:55.967Z,73.50
2022-12-18T01:09:27.435Z,73.40
2022-12-18T01:09:59.026Z,73.50
2022-12-18T01:10:30.644Z,73.30
2022-12-18T01:11:02.119Z,73.40
2022-12-18T01:11:33.587Z,73.30
2022-12-18T01:12:05.064Z,73.30
2022-12-18T01:12:36.526Z,73.40
2022-12-18T01:13:08.087Z,73.50
2022-12-18T01:13:40.033Z,73.30
2022-12-18T01:14:11.710Z,73.50
2022-12-18T01:14:43.162Z,73.30
2022-12-18T01:15:14.632Z,73.20
2022-12-18T01:15:46.111Z,73.10
2022-12-18T01:16:17.649Z,73.00
2022-12-18T01:16:49.190Z,73.20
2022-12-18T01:17:20.686Z,72.90
2022-12-18T01:17:52.153Z,72.90
2022-12-18T01:18:23.616Z,72.90
2022-12-18T01:18:55.091Z,72.90
2022-12-18T01:19:26.542Z,73.00
2022-12-18T01:19:58.007Z,73.00
2022-12-18T01:20:29.465Z,72.90
2022-12-18T01:21:00.936Z,72.90
2022-12-18T01:21:32.399Z,73.00
2022-12-18T01:22:03.853Z,72.80
2022-12-18T01:22:35.334Z,72.80
2022-12-18T01:23:06.796Z,72.70
2022-12-18T01:23:38.655Z,73.00
2022-12-18T01:24:10.326Z,72.70
2022-12-18T01:24:41.782Z,72.60
2022-12-18T01:25:13.245Z,72.90
2022-12-18T01:25:44.708Z,72.60
2022-12-18T01:26:16.179Z,72.60
2022-12-18T01:26:47.924Z,72.50
2022-12-18T01:27:19.419Z,72.50
2022-12-18T01:27:50.885Z,72.50
2022-12-18T01:28:22.338Z,72.50
2022-12-18T01:29:25.868Z,66.00
2022-12-18T01:29:57.378Z,66.30
2022-12-18T01:30:28.882Z,66.20
2022-12-18T01:31:00.355Z,66.00
2022-12-18T01:31:31.852Z,66.00
2022-12-18T01:32:03.363Z,65.90
2022-12-18T01:32:34.878Z,65.80
2022-12-18T01:33:06.337Z,65.80
2022-12-18T01:33:38.091Z,65.80
2022-12-18T01:34:09.864Z,65.90
2022-12-18T01:34:41.334Z,65.90
2022-12-18T01:35:12.803Z,66.00
2022-12-18T01:35:44.273Z,65.90
2022-12-18T01:36:15.783Z,65.90
2022-12-18T01:36:47.316Z,66.00
2022-12-18T01:37:18.779Z,66.00
2022-12-18T01:37:50.250Z,66.00
2022-12-18T01:38:21.717Z,65.90
2022-12-18T01:38:53.283Z,65.80
2022-12-18T01:39:24.801Z,65.90
2022-12-18T01:39:56.307Z,65.70
2022-12-18T01:40:27.769Z,65.70
2022-12-18T01:40:59.437Z,65.70
2022-12-18T01:41:30.903Z,65.70
2022-12-18T01:42:02.460Z,65.60
2022-12-18T01:42:34.076Z,65.50
2022-12-18T01:43:05.544Z,65.50
2022-12-18T01:43:37.359Z,84.00
2022-12-18T01:44:08.906Z,83.70
2022-12-18T01:44:40.366Z,83.30
2022-12-18T01:45:11.834Z,83.10
2022-12-18T01:45:43.323Z,82.90
2022-12-18T01:46:14.897Z,82.70
2022-12-18T01:46:46.367Z,82.50
2022-12-18T01:47:17.835Z,82.40
2022-12-18T01:47:49.340Z,82.10
2022-12-18T01:48:20.799Z,82.00
2022-12-18T01:48:52.262Z,82.00
2022-12-18T01:49:23.718Z,82.00
2022-12-18T01:49:55.209Z,82.00
2022-12-18T01:50:26.666Z,82.70
2022-12-18T01:50:58.121Z,81.90
2022-12-18T01:51:29.579Z,81.90
2022-12-18T01:52:01.046Z,81.80
2022-12-18T01:52:32.500Z,81.70
2022-12-18T01:53:03.974Z,81.60
2022-12-18T01:53:35.742Z,81.50
2022-12-18T01:54:07.359Z,81.50
2022-12-18T01:54:38.835Z,81.40
2022-12-18T01:55:10.299Z,81.30
2022-12-18T01:55:41.755Z,81.20
2022-12-18T01:56:13.211Z,81.20
2022-12-18T01:56:44.668Z,81.20
2022-12-18T01:57:16.136Z,78.70
2022-12-18T01:57:47.607Z,78.70
2022-12-18T01:58:19.073Z,78.50
2022-12-18T01:58:50.539Z,78.40
2022-12-18T01:59:22.019Z,78.30
2022-12-18T01:59:53.475Z,78.30
2022-12-18T02:00:24.931Z,78.30
2022-12-18T02:00:56.466Z,78.30
2022-12-18T02:01:28.087Z,78.50
2022-12-18T02:01:59.879Z,78.30
2022-12-18T02:02:31.690Z,78.40
2022-12-18T02:03:03.282Z,78.30
2022-12-18T02:03:34.872Z,78.30
2022-12-18T02:04:06.361Z,78.20
2022-12-18T02:04:37.862Z,78.20
2022-12-18T02:05:09.382Z,78.10
2022-12-18T02:05:40.849Z,78.20
2022-12-18T02:06:12.332Z,78.20
2022-12-18T02:06:43.785Z,78.40
2022-12-18T02:07:15.256Z,78.40
2022-12-18T02:07:46.962Z,78.30
2022-12-18T02:08:18.479Z,78.50
2022-12-18T02:08:49.943Z,78.40
2022-12-18T02:09:21.408Z,78.40
2022-12-18T02:09:52.905Z,78.30
2022-12-18T02:10:24.374Z,78.20
2022-12-18T02:10:56.055Z,78.10
2022-12-18T02:11:27.749Z,78.10
2022-12-18T02:11:59.217Z,78.10
2022-12-18T02:12:30.678Z,78.00
2022-12-18T02:13:02.138Z,78.00
2022-12-18T02:13:33.599Z,77.90
2022-12-18T02:14:05.179Z,77.90
2022-12-18T02:14:36.809Z,77.80
2022-12-18T02:15:08.278Z,77.90
2022-12-18T02:15:39.769Z,77.60
2022-12-18T02:16:11.265Z,77.50
2022-12-18T02:16:42.813Z,77.40
2022-12-18T02:17:14.356Z,77.50
2022-12-18T02:17:45.878Z,77.50
2022-12-18T02:18:17.340Z,77.50
2022-12-18T02:18:48.798Z,77.10
2022-12-18T02:19:20.622Z,76.50
2022-12-18T02:19:52.088Z,76.20
2022-12-18T02:20:23.555Z,76.10
2022-12-18T02:20:55.041Z,76.00
2022-12-18T02:21:26.525Z,76.00
2022-12-18T02:21:57.983Z,76.10
2022-12-18T02:22:29.456Z,76.30
2022-12-18T02:23:00.911Z,76.50
2022-12-18T02:23:32.393Z,76.50
2022-12-18T02:24:03.977Z,76.90
2022-12-18T02:24:35.477Z,77.00
2022-12-18T02:25:06.954Z,77.10
2022-12-18T02:25:38.417Z,77.00
2022-12-18T02:26:09.874Z,77.00
2022-12-18T02:26:41.346Z,77.00
2022-12-18T02:27:12.814Z,76.90
2022-12-18T02:27:44.284Z,76.90
2022-12-18T02:28:15.794Z,76.80
2022-12-18T02:28:47.266Z,76.70
2022-12-18T02:29:18.759Z,76.70
2022-12-18T02:29:56.036Z,76.70
2022-12-18T02:30:29.609Z,76.50
2022-12-18T02:31:01.121Z,76.50
2022-12-18T02:31:32.630Z,76.50
2022-12-18T02:32:04.088Z,76.40
2022-12-18T02:32:35.547Z,76.20
2022-12-18T02:33:07.006Z,76.10
2022-12-18T02:33:38.897Z,76.00
2022-12-18T02:34:10.573Z,75.90
2022-12-18T02:34:42.037Z,75.80
2022-12-18T02:35:13.508Z,75.70
2022-12-18T02:35:44.963Z,75.80
2022-12-18T02:36:16.420Z,75.70
2022-12-18T02:36:47.909Z,75.40
2022-12-18T02:37:19.390Z,75.30
2022-12-18T02:37:50.863Z,75.40
2022-12-18T02:38:22.318Z,75.20
2022-12-18T02:41:55.940Z,75.50
2022-12-18T02:42:27.403Z,75.50
2022-12-18T02:42:58.916Z,75.50
2022-12-18T02:43:30.410Z,75.30
2022-12-18T02:44:01.889Z,75.20
2022-12-18T02:44:33.355Z,75.20
2022-12-18T02:45:04.817Z,75.20
2022-12-18T02:45:36.327Z,75.20
2022-12-18T02:46:07.878Z,75.10
2022-12-18T02:46:39.381Z,75.10
2022-12-18T02:47:10.838Z,75.10
2022-12-18T02:47:42.304Z,75.20
2022-12-18T02:48:13.780Z,75.00
2022-12-18T02:48:45.248Z,74.90
2022-12-18T02:49:16.723Z,75.10
2022-12-18T02:49:48.299Z,75.00
2022-12-18T02:50:19.786Z,74.90
2022-12-18T02:50:51.263Z,75.00
2022-12-18T02:51:22.721Z,74.80
2022-12-18T02:51:54.189Z,74.70
2022-12-18T02:52:25.787Z,74.70
2022-12-18T02:52:57.702Z,75.40
2022-12-18T02:53:29.162Z,74.40
2022-12-18T02:54:00.635Z,74.10
2022-12-18T02:54:32.103Z,73.90
2022-12-18T02:55:03.573Z,73.80
2022-12-18T02:55:35.072Z,73.70
2022-12-18T02:56:06.560Z,73.70
2022-12-18T02:56:38.055Z,73.60
2022-12-18T02:57:09.515Z,73.70
2022-12-18T02:57:40.980Z,73.60
2022-12-18T02:58:12.462Z,73.60
2022-12-18T02:58:44.018Z,73.80
2022-12-18T02:59:15.552Z,73.70
2022-12-18T02:59:47.010Z,73.60
2022-12-18T03:00:18.474Z,73.50
2022-12-18T03:00:50.032Z,73.40
2022-12-18T03:01:21.803Z,52.90
2022-12-18T03:01:53.537Z,52.40
2022-12-18T03:02:25.202Z,52.20
2022-12-18T03:02:57.087Z,52.10
2022-12-18T03:03:28.642Z,52.00
2022-12-18T03:04:00.157Z,52.00
2022-12-18T03:04:31.617Z,52.20
2022-12-18T03:05:03.867Z,52.60
2022-12-18T03:05:35.331Z,53.10
2022-12-18T03:06:06.793Z,53.90
2022-12-18T03:06:38.267Z,54.60
2022-12-18T03:07:09.726Z,55.00
2022-12-18T03:07:41.204Z,56.10
2022-12-18T03:08:12.680Z,56.60
2022-12-18T03:08:44.455Z,56.70
2022-12-18T03:09:15.922Z,57.00
2022-12-18T03:09:47.387Z,57.70
2022-12-18T03:10:18.859Z,58.60
2022-12-18T03:10:50.324Z,59.50
2022-12-18T03:11:21.799Z,60.10
2022-12-18T03:11:53.270Z,61.80
2022-12-18T03:12:24.920Z,63.50
2022-12-18T03:12:56.388Z,63.70
2022-12-18T03:13:27.844Z,64.10
2022-12-18T03:13:59.326Z,65.20
2022-12-18T04:14:51.672Z,54.90
2022-12-18T04:15:23.129Z,55.20
2022-12-18T04:15:54.632Z,55.10
2022-12-18T04:16:26.127Z,55.10
2022-12-18T04:16:57.603Z,55.10
2022-12-18T04:17:29.062Z,55.20
2022-12-18T04:18:00.522Z,55.20
2022-12-18T04:18:32.005Z,55.20
2022-12-18T04:19:03.462Z,55.20
2022-12-18T04:19:34.924Z,55.30
2022-12-18T04:20:06.402Z,55.20
2022-12-18T04:20:37.876Z,55.20
2022-12-18T04:21:09.334Z,55.10
2022-12-18T04:21:40.803Z,55.10
2022-12-18T04:22:12.275Z,55.00
2022-12-18T04:22:43.731Z,54.90
2022-12-18T04:23:15.192Z,55.00
2022-12-18T04:23:46.677Z,54.90
2022-12-18T04:24:18.145Z,54.80
2022-12-18T04:24:49.603Z,54.80
2022-12-18T04:25:21.064Z,54.80
2022-12-18T04:25:52.543Z,54.70
2022-12-18T04:26:23.998Z,54.80
2022-12-18T04:26:55.469Z,54.70
2022-12-18T04:27:26.936Z,54.60
2022-12-18T04:27:58.404Z,55.20
2022-12-18T04:28:29.862Z,54.60
2022-12-18T04:29:01.322Z,54.60
2022-12-18T04:29:32.783Z,54.50
2022-12-18T04:30:04.382Z,54.50
2022-12-18T04:30:35.935Z,54.50
2022-12-18T04:31:07.447Z,47.00
2022-12-18T04:31:38.982Z,46.40
2022-12-18T04:32:10.464Z,46.40
2022-12-18T04:32:41.960Z,46.40
2022-12-18T04:33:13.527Z,46.50
2022-12-18T04:33:45.045Z,46.50
2022-12-18T04:34:16.513Z,46.50
2022-12-18T04:34:47.984Z,47.20
2022-12-18T04:35:19.456Z,46.50
2022-12-18T04:35:50.916Z,46.60
2022-12-18T04:36:22.379Z,46.50
2022-12-18T04:36:53.845Z,46.50
2022-12-18T04:37:25.323Z,46.50
2022-12-18T04:37:56.783Z,46.50
2022-12-18T04:38:28.242Z,46.50
2022-12-18T04:38:59.704Z,46.40
2022-12-18T04:39:31.173Z,46.90
2022-12-18T04:40:02.646Z,46.40
2022-12-18T04:40:34.114Z,46.40
2022-12-18T04:41:05.576Z,46.40
2022-12-18T04:41:37.036Z,46.40
2022-12-18T04:42:08.502Z,46.40
2022-12-18T04:42:40.039Z,46.40
2022-12-18T04:43:11.635Z,46.40
2022-12-18T04:43:43.487Z,46.50
2022-12-18T04:44:14.973Z,46.40
2022-12-18T04:44:46.584Z,46.40
2022-12-18T04:45:18.074Z,46.40
2022-12-18T04:45:49.540Z,46.40
2022-12-18T04:46:21.093Z,46.50
2022-12-18T04:46:52.678Z,46.40
2022-12-18T04:47:24.180Z,46.50
2022-12-18T04:47:55.651Z,46.40
2022-12-18T04:48:27.106Z,46.30
2022-12-18T04:48:58.598Z,46.30
2022-12-18T04:49:30.069Z,46.40
2022-12-18T04:50:01.533Z,46.30
2022-12-18T04:50:33.029Z,46.40
2022-12-18T04:51:04.497Z,46.40
2022-12-18T04:51:36.006Z,46.40
2022-12-18T04:52:07.478Z,46.50
2022-12-18T04:52:38.942Z,46.50
2022-12-18T04:53:10.402Z,46.60
2022-12-18T04:53:42.244Z,46.60
2022-12-18T04:54:13.891Z,46.60
2022-12-18T04:54:45.368Z,46.60
2022-12-18T04:55:16.859Z,46.60
2022-12-18T04:55:48.411Z,46.60
2022-12-18T04:56:19.881Z,46.50
2022-12-18T04:56:51.352Z,46.50
2022-12-18T04:57:22.815Z,46.50
2022-12-18T04:57:54.277Z,46.40
2022-12-18T04:58:25.746Z,46.50
2022-12-18T04:58:57.203Z,46.40
2022-12-18T04:59:28.675Z,46.40
2022-12-18T05:00:00.149Z,46.40
2022-12-18T05:00:31.624Z,46.40
2022-12-18T05:01:03.100Z,46.40
2022-12-18T05:01:35.366Z,46.40
2022-12-18T05:02:07.077Z,46.40
2022-12-18T05:02:38.703Z,46.30
2022-12-18T05:03:10.272Z,46.20
2022-12-18T05:03:42.177Z,46.20
2022-12-18T05:04:13.978Z,46.20
2022-12-18T05:04:45.533Z,46.30
2022-12-18T05:05:17.017Z,46.30
2022-12-18T05:05:48.670Z,46.40
2022-12-18T05:06:20.192Z,46.40
2022-12-18T05:06:51.703Z,46.40
2022-12-18T05:07:23.164Z,46.40
2022-12-18T05:07:54.636Z,46.50
2022-12-18T05:08:26.110Z,46.50
2022-12-18T05:08:57.660Z,46.60
2022-12-18T05:09:29.193Z,46.50
2022-12-18T05:10:00.659Z,46.50
2022-12-18T05:10:37.763Z,46.50
2022-12-18T05:11:09.861Z,46.40
2022-12-18T05:11:42.029Z,46.40
2022-12-18T05:12:13.492Z,46.40
2022-12-18T05:12:45.085Z,46.40
2022-12-18T05:13:16.569Z,46.30
2022-12-18T05:13:48.059Z,46.30
2022-12-18T05:14:19.618Z,46.30
2022-12-18T05:14:51.140Z,46.30
2022-12-18T05:15:22.612Z,46.30
2022-12-18T05:15:54.159Z,46.30
2022-12-18T05:16:25.729Z,46.30
2022-12-18T05:17:00.853Z,46.30
2022-12-18T05:17:32.798Z,46.20
2022-12-18T05:18:04.339Z,46.20
2022-12-18T05:18:35.799Z,46.20
2022-12-18T05:19:07.278Z,46.10
2022-12-18T05:19:38.749Z,46.20
2022-12-18T05:20:10.233Z,46.30
2022-12-18T05:20:41.727Z,46.30
2022-12-18T05:21:13.330Z,46.40
2022-12-18T05:21:44.810Z,46.30
2022-12-18T05:22:17.351Z,46.40
2022-12-18T05:22:48.956Z,46.40
2022-12-18T05:23:20.410Z,46.50
2022-12-18T05:23:51.872Z,46.40
2022-12-18T05:24:23.373Z,46.40
2022-12-18T05:24:54.993Z,46.30
2022-12-18T05:25:26.541Z,46.30
2022-12-18T05:25:58.011Z,46.20
2022-12-18T05:26:29.476Z,46.30
2022-12-18T05:27:00.940Z,46.20
2022-12-18T05:27:32.499Z,46.20
2022-12-18T05:28:03.996Z,46.20
2022-12-18T05:28:35.459Z,46.20
2022-12-18T05:29:06.947Z,46.20
2022-12-18T05:29:38.404Z,46.10
2022-12-18T05:30:09.860Z,46.10
2022-12-18T05:30:41.374Z,46.10
2022-12-18T05:31:12.918Z,46.20
2022-12-18T05:31:44.542Z,46.10
2022-12-18T05:32:16.267Z,46.10
2022-12-18T05:32:47.730Z,46.20
2022-12-18T05:33:19.191Z,46.10
2022-12-18T05:33:50.670Z,46.00
2022-12-18T05:34:22.169Z,46.00
2022-12-18T05:34:53.632Z,46.00
2022-12-18T05:35:25.104Z,46.00
2022-12-18T05:35:56.573Z,46.00
2022-12-18T05:36:28.052Z,46.00
2022-12-18T05:36:59.559Z,46.10
2022-12-18T05:37:31.047Z,46.10
2022-12-18T05:38:02.529Z,46.10
2022-12-18T05:38:34.012Z,46.20
2022-12-18T05:39:05.475Z,46.80
2022-12-18T05:39:37.549Z,46.20
2022-12-18T05:40:09.013Z,46.20
2022-12-18T05:40:40.472Z,46.10
2022-12-18T05:41:11.940Z,46.20
2022-12-18T05:41:43.418Z,46.10
2022-12-18T05:42:15.630Z,46.00
2022-12-18T05:42:47.091Z,46.00
2022-12-18T05:43:21.395Z,46.00
2022-12-18T05:43:53.160Z,46.00
2022-12-18T05:44:24.630Z,46.00
2022-12-18T05:44:56.094Z,46.00
2022-12-18T05:45:27.612Z,46.00
2022-12-18T05:45:59.161Z,46.00
2022-12-18T05:46:30.675Z,46.00
2022-12-18T05:47:02.244Z,46.00
2022-12-18T05:47:33.793Z,46.00
2022-12-18T05:48:05.333Z,46.00
2022-12-18T05:48:36.795Z,46.00
2022-12-18T05:49:08.265Z,46.00
2022-12-18T05:49:39.726Z,45.90
2022-12-18T05:50:11.182Z,45.90
2022-12-18T05:50:42.647Z,45.90
2022-12-18T05:51:14.114Z,45.90
2022-12-18T05:51:45.580Z,45.90
2022-12-18T05:52:17.035Z,46.00
2022-12-18T05:52:48.498Z,46.00
2022-12-18T05:53:19.968Z,46.00
2022-12-18T05:53:51.436Z,46.10
2022-12-18T05:54:22.910Z,46.10
2022-12-18T05:54:54.387Z,46.20
2022-12-18T05:55:25.856Z,46.20
2022-12-18T05:55:57.321Z,46.20
2022-12-18T05:56:28.785Z,46.20
2022-12-18T05:57:00.261Z,46.10
2022-12-18T05:57:31.715Z,46.10
2022-12-18T05:58:03.344Z,46.00
2022-12-18T05:58:34.838Z,46.00
2022-12-18T05:59:06.400Z,46.00
2022-12-18T05:59:37.864Z,46.10
2022-12-18T06:00:09.322Z,46.00
2022-12-18T06:00:40.800Z,46.00
2022-12-18T06:01:12.370Z,46.00
2022-12-18T06:01:43.975Z,46.00
2022-12-18T06:02:15.578Z,46.00
2022-12-18T06:02:47.288Z,46.00
2022-12-18T06:03:19.400Z,46.00
2022-12-18T06:03:50.976Z,46.00
2022-12-18T06:04:22.501Z,46.00
2022-12-18T06:04:53.960Z,46.00
2022-12-18T06:05:25.438Z,46.00
2022-12-18T06:05:56.922Z,45.90
2022-12-18T06:06:28.381Z,45.90
2022-12-18T06:06:59.889Z,45.90
2022-12-18T06:07:31.361Z,45.90
2022-12-18T06:08:02.948Z,46.00
2022-12-18T06:08:34.421Z,46.00
2022-12-18T06:09:05.885Z,46.00
2022-12-18T06:09:37.965Z,46.00
2022-12-18T06:10:09.440Z,46.10
2022-12-18T06:10:40.911Z,46.20
2022-12-18T06:11:12.382Z,46.20
2022-12-18T06:11:43.864Z,46.20
2022-12-18T06:12:15.358Z,46.20
2022-12-18T06:12:46.823Z,46.10
2022-12-18T06:13:19.024Z,46.10
2022-12-18T06:13:53.579Z,46.10
2022-12-18T06:14:29.238Z,46.10
2022-12-18T06:15:00.700Z,46.00
2022-12-18T06:15:32.278Z,46.00
2022-12-18T06:16:03.857Z,46.00
2022-12-18T06:16:35.408Z,46.00
2022-12-18T06:17:06.974Z,46.00
2022-12-18T06:17:38.440Z,46.00
2022-12-18T06:18:09.908Z,45.90
2022-12-18T06:18:41.425Z,46.00
2022-12-18T06:19:12.918Z,46.00
2022-12-18T06:19:44.385Z,46.00
2022-12-18T06:20:15.910Z,45.90
2022-12-18T06:20:48.483Z,45.90
2022-12-18T06:21:19.944Z,45.90
2022-12-18T06:21:51.404Z,45.90
2022-12-18T06:22:23.022Z,45.90
2022-12-18T06:22:54.546Z,45.80
2022-12-18T06:23:26.014Z,45.90
2022-12-18T06:23:57.473Z,45.90
2022-12-18T06:24:29.152Z,45.90
2022-12-18T06:25:00.738Z,45.90
2022-12-18T06:25:32.232Z,46.00
2022-12-18T06:26:03.696Z,46.00
2022-12-18T06:26:35.163Z,46.10
2022-12-18T06:27:06.629Z,46.20
2022-12-18T06:27:38.095Z,46.10
2022-12-18T06:28:09.568Z,46.10
2022-12-18T06:28:42.392Z,46.10
2022-12-18T06:29:13.976Z,46.00
2022-12-18T06:29:45.493Z,46.00
2022-12-18T06:30:16.957Z,46.00
2022-12-18T06:30:48.416Z,46.00
2022-12-18T06:31:20.011Z,46.00
2022-12-18T06:31:51.674Z,45.90
2022-12-18T06:32:23.164Z,45.90
2022-12-18T06:32:56.724Z,45.90
2022-12-18T06:33:28.537Z,45.90
2022-12-18T06:34:00.037Z,45.80
2022-12-18T06:34:32.668Z,45.90
2022-12-18T06:35:04.205Z,45.90
2022-12-18T06:35:35.668Z,45.80
2022-12-18T06:36:07.126Z,45.80
2022-12-18T06:36:38.593Z,45.90
2022-12-18T06:37:10.345Z,45.80
2022-12-18T06:37:41.803Z,45.80
2022-12-18T06:38:13.269Z,45.80
2022-12-18T06:38:44.736Z,45.70
2022-12-18T06:39:16.202Z,45.80
2022-12-18T06:39:47.684Z,45.80
2022-12-18T06:40:19.152Z,45.80
2022-12-18T06:40:50.624Z,45.90
2022-12-18T06:41:22.098Z,45.90
2022-12-18T06:41:53.709Z,46.00
2022-12-18T06:42:25.179Z,46.00
2022-12-18T06:42:56.658Z,46.00
2022-12-18T06:43:28.116Z,46.00
2022-12-18T06:44:00.041Z,46.00
2022-12-18T06:44:31.850Z,46.00
2022-12-18T06:45:03.489Z,46.00
2022-12-18T06:45:35.026Z,46.00
2022-12-18T06:46:06.589Z,46.00
2022-12-18T06:46:38.099Z,46.00
2022-12-18T06:47:09.592Z,45.90
2022-12-18T06:47:41.119Z,45.90
2022-12-18T06:48:12.649Z,45.90
2022-12-18T06:48:44.112Z,45.80
2022-12-18T06:49:15.587Z,45.90
2022-12-18T06:49:47.100Z,45.80
2022-12-18T06:50:18.576Z,45.80
2022-12-18T06:50:50.152Z,45.80
2022-12-18T06:51:21.661Z,45.80
2022-12-18T06:51:53.119Z,45.70
2022-12-18T06:52:24.575Z,45.70
2022-12-18T06:52:56.050Z,45.80
2022-12-18T06:53:27.596Z,45.70
2022-12-18T06:53:59.177Z,45.70
2022-12-18T06:54:30.728Z,45.70
2022-12-18T06:55:02.198Z,45.80
2022-12-18T06:55:33.701Z,45.80
2022-12-18T06:56:09.405Z,45.90
2022-12-18T06:56:41.577Z,45.90
2022-12-18T06:57:13.032Z,45.90
2022-12-18T06:57:44.513Z,46.00
2022-12-18T06:58:15.975Z,46.00
2022-12-18T06:58:47.449Z,45.90
2022-12-18T06:59:18.925Z,45.80
2022-12-18T06:59:50.396Z,45.80
2022-12-18T07:00:21.856Z,45.80
2022-12-18T07:00:53.334Z,45.80
2022-12-18T07:01:24.888Z,45.70
2022-12-18T07:01:56.642Z,45.70
2022-12-18T07:02:28.257Z,45.70
2022-12-18T07:02:59.850Z,45.70
2022-12-18T07:03:31.357Z,45.70
2022-12-18T07:04:02.841Z,45.70
2022-12-18T07:04:34.295Z,45.70
2022-12-18T07:05:10.514Z,45.70
2022-12-18T07:05:42.304Z,45.70
2022-12-18T07:06:13.784Z,45.70
2022-12-18T07:06:45.247Z,45.70
2022-12-18T07:07:16.708Z,45.70
2022-12-18T07:07:48.166Z,45.60
2022-12-18T07:08:19.633Z,45.60
2022-12-18T07:08:51.093Z,45.70
2022-12-18T07:09:22.552Z,45.70
2022-12-18T07:09:54.004Z,45.80
2022-12-18T07:10:25.474Z,45.70
2022-12-18T07:10:56.951Z,45.80
2022-12-18T07:11:28.446Z,45.80
2022-12-18T07:12:00.140Z,45.90
2022-12-18T07:12:31.590Z,45.90
2022-12-18T07:13:03.042Z,45.90
2022-12-18T07:13:34.512Z,45.90
2022-12-18T07:14:05.989Z,45.80
2022-12-18T07:14:37.497Z,45.90
2022-12-18T07:15:09.085Z,45.80
2022-12-18T07:15:40.562Z,45.90
2022-12-18T07:16:18.436Z,45.80
2022-12-18T07:16:54.050Z,45.80
2022-12-18T07:17:25.538Z,45.70
2022-12-18T07:17:57.039Z,45.80
2022-12-18T07:18:28.511Z,45.70
2022-12-18T07:19:00.130Z,45.70
2022-12-18T07:19:31.636Z,45.80
2022-12-18T07:20:03.848Z,45.70
2022-12-18T07:20:35.325Z,45.70
2022-12-18T07:21:06.824Z,45.70
2022-12-18T07:21:38.293Z,45.70
2022-12-18T07:22:09.769Z,45.80
2022-12-18T07:22:41.232Z,45.70
2022-12-18T07:23:12.704Z,45.70
2022-12-18T07:23:44.179Z,45.60
2022-12-18T07:24:15.644Z,45.70
2022-12-18T07:24:47.103Z,45.60
2022-12-18T07:25:18.573Z,45.60
2022-12-18T07:25:50.048Z,45.60
2022-12-18T07:26:21.541Z,45.60
2022-12-18T07:26:53.009Z,45.60
2022-12-18T07:27:24.466Z,45.60
2022-12-18T07:27:56.055Z,45.60
2022-12-18T07:28:27.512Z,45.70
2022-12-18T07:28:58.990Z,45.70
2022-12-18T07:29:30.468Z,45.80
2022-12-18T07:30:01.955Z,45.90
2022-12-18T07:30:33.531Z,45.90
2022-12-18T07:31:04.992Z,45.90
2022-12-18T07:31:36.499Z,45.80
2022-12-18T07:32:08.107Z,45.80
2022-12-18T07:32:40.160Z,45.70
2022-12-18T07:33:11.633Z,45.70
2022-12-18T07:33:43.344Z,45.70
2022-12-18T07:34:14.978Z,45.60
2022-12-18T07:34:46.445Z,45.70
2022-12-18T07:35:23.360Z,45.60
2022-12-18T07:35:56.333Z,45.70
2022-12-18T07:36:27.803Z,45.60
2022-12-18T07:36:59.348Z,45.60
2022-12-18T07:37:30.891Z,45.60
2022-12-18T07:38:02.361Z,45.60
2022-12-18T07:38:33.828Z,45.70
2022-12-18T07:39:05.299Z,45.60
2022-12-18T07:39:36.798Z,45.60
2022-12-18T07:40:08.293Z,46.00
2022-12-18T07:40:39.771Z,45.50
2022-12-18T07:41:11.240Z,45.60
2022-12-18T07:41:46.744Z,45.50
2022-12-18T07:42:18.710Z,45.50
2022-12-18T07:42:50.192Z,45.60
2022-12-18T07:43:21.662Z,45.60
2022-12-18T07:43:53.126Z,45.70
2022-12-18T07:44:24.612Z,45.70
2022-12-18T07:44:56.071Z,45.70
2022-12-18T07:45:28.120Z,45.80
2022-12-18T07:45:59.727Z,45.80
2022-12-18T07:46:31.283Z,45.80
2022-12-18T07:47:04.705Z,45.80
2022-12-18T07:47:39.187Z,45.70
2022-12-18T07:48:10.663Z,45.70
2022-12-18T07:48:42.135Z,45.60
2022-12-18T07:49:14.161Z,45.60
2022-12-18T07:49:45.619Z,45.60
2022-12-18T07:50:17.083Z,45.50
2022-12-18T07:50:48.553Z,45.60
2022-12-18T07:51:20.019Z,45.50